sensor_id;sensor_type;location;lat;lon;timestamp;temperature;humidity
26909;DHT22;14477;51.038;4.588;2022-08-03T00:01:42;23.80;60.60
26909;DHT22;14477;51.038;4.588;2022-08-03T00:04:09;23.70;60.80
26909;DHT22;14477;51.038;4.588;2022-08-03T00:06:35;23.70;60.90
26909;DHT22;14477;51.038;4.588;2022-08-03T00:09:02;23.70;60.90
26909;DHT22;14477;51.038;4.588;2022-08-03T00:11:28;23.60;61.00
26909;DHT22;14477;51.038;4.588;2022-08-03T00:13:53;23.60;61.10
26909;DHT22;14477;51.038;4.588;2022-08-03T00:16:19;23.60;61.30
26909;DHT22;14477;51.038;4.588;2022-08-03T00:18:45;23.60;61.30
26909;DHT22;14477;51.038;4.588;2022-08-03T00:21:11;23.60;61.40
26909;DHT22;14477;51.038;4.588;2022-08-03T00:23:37;23.60;61.50
26909;DHT22;14477;51.038;4.588;2022-08-03T00:26:03;23.60;61.60
26909;DHT22;14477;51.038;4.588;2022-08-03T00:28:29;23.60;61.60
26909;DHT22;14477;51.038;4.588;2022-08-03T00:30:54;23.50;61.70
26909;DHT22;14477;51.038;4.588;2022-08-03T00:33:21;23.50;61.70
26909;DHT22;14477;51.038;4.588;2022-08-03T00:35:47;23.50;61.80
26909;DHT22;14477;51.038;4.588;2022-08-03T00:38:13;23.40;61.90
26909;DHT22;14477;51.038;4.588;2022-08-03T00:40:39;23.40;62.10
26909;DHT22;14477;51.038;4.588;2022-08-03T00:43:06;23.40;62.20
26909;DHT22;14477;51.038;4.588;2022-08-03T00:45:37;23.30;62.50
26909;DHT22;14477;51.038;4.588;2022-08-03T00:48:05;23.30;63.10
26909;DHT22;14477;51.038;4.588;2022-08-03T00:50:34;23.30;62.70
26909;DHT22;14477;51.038;4.588;2022-08-03T00:53:02;23.30;63.10
26909;DHT22;14477;51.038;4.588;2022-08-03T00:55:29;23.20;62.80
26909;DHT22;14477;51.038;4.588;2022-08-03T00:57:55;23.20;62.80
26909;DHT22;14477;51.038;4.588;2022-08-03T01:00:23;23.10;62.80
26909;DHT22;14477;51.038;4.588;2022-08-03T01:02:50;23.10;63.30
26909;DHT22;14477;51.038;4.588;2022-08-03T01:05:17;23.00;63.00
26909;DHT22;14477;51.038;4.588;2022-08-03T01:12:58;22.90;64.40
26909;DHT22;14477;51.038;4.588;2022-08-03T01:15:45;22.90;63.30
26909;DHT22;14477;51.038;4.588;2022-08-03T01:18:24;22.80;64.70
26909;DHT22;14477;51.038;4.588;2022-08-03T01:20:55;22.80;64.50
26909;DHT22;14477;51.038;4.588;2022-08-03T01:29:07;22.70;65.40
26909;DHT22;14477;51.038;4.588;2022-08-03T01:31:56;22.60;64.50
26909;DHT22;14477;51.038;4.588;2022-08-03T01:34:27;22.60;65.70
26909;DHT22;14477;51.038;4.588;2022-08-03T01:36:56;22.60;64.10
26909;DHT22;14477;51.038;4.588;2022-08-03T01:39:25;22.50;64.40
26909;DHT22;14477;51.038;4.588;2022-08-03T01:41:57;22.40;64.20
26909;DHT22;14477;51.038;4.588;2022-08-03T01:44:27;22.40;64.60
26909;DHT22;14477;51.038;4.588;2022-08-03T01:46:57;22.40;64.50
26909;DHT22;14477;51.038;4.588;2022-08-03T01:49:25;22.30;64.70
26909;DHT22;14477;51.038;4.588;2022-08-03T01:51:51;22.30;64.50
26909;DHT22;14477;51.038;4.588;2022-08-03T01:54:19;22.30;64.50
26909;DHT22;14477;51.038;4.588;2022-08-03T01:56:48;22.30;64.90
26909;DHT22;14477;51.038;4.588;2022-08-03T01:59:16;22.20;64.80
26909;DHT22;14477;51.038;4.588;2022-08-03T02:01:45;22.20;64.70
26909;DHT22;14477;51.038;4.588;2022-08-03T02:04:14;22.20;64.70
26909;DHT22;14477;51.038;4.588;2022-08-03T02:06:42;22.20;65.00
26909;DHT22;14477;51.038;4.588;2022-08-03T02:09:12;22.20;64.70
26909;DHT22;14477;51.038;4.588;2022-08-03T02:11:39;22.10;64.90
26909;DHT22;14477;51.038;4.588;2022-08-03T02:14:07;22.00;64.80
26909;DHT22;14477;51.038;4.588;2022-08-03T02:16:34;22.00;64.90
26909;DHT22;14477;51.038;4.588;2022-08-03T02:19:03;21.90;65.00
26909;DHT22;14477;51.038;4.588;2022-08-03T02:21:32;21.90;65.30
26909;DHT22;14477;51.038;4.588;2022-08-03T02:24:00;21.90;65.50
26909;DHT22;14477;51.038;4.588;2022-08-03T02:26:28;21.80;65.30
26909;DHT22;14477;51.038;4.588;2022-08-03T02:28:55;21.80;65.80
26909;DHT22;14477;51.038;4.588;2022-08-03T02:31:24;21.70;65.50
26909;DHT22;14477;51.038;4.588;2022-08-03T02:33:53;21.70;65.60
26909;DHT22;14477;51.038;4.588;2022-08-03T02:36:23;21.70;65.90
26909;DHT22;14477;51.038;4.588;2022-08-03T02:38:53;21.70;66.10
26909;DHT22;14477;51.038;4.588;2022-08-03T02:41:23;21.60;66.10
26909;DHT22;14477;51.038;4.588;2022-08-03T02:43:52;21.50;66.10
26909;DHT22;14477;51.038;4.588;2022-08-03T02:46:24;21.50;66.00
26909;DHT22;14477;51.038;4.588;2022-08-03T02:48:51;21.40;66.60
26909;DHT22;14477;51.038;4.588;2022-08-03T02:51:18;21.40;66.80
26909;DHT22;14477;51.038;4.588;2022-08-03T02:53:45;21.40;66.00
26909;DHT22;14477;51.038;4.588;2022-08-03T02:56:13;21.40;66.20
26909;DHT22;14477;51.038;4.588;2022-08-03T02:58:42;21.30;66.30
26909;DHT22;14477;51.038;4.588;2022-08-03T03:01:09;21.30;66.40
26909;DHT22;14477;51.038;4.588;2022-08-03T03:03:35;21.30;66.10
26909;DHT22;14477;51.038;4.588;2022-08-03T03:06:02;21.30;66.20
26909;DHT22;14477;51.038;4.588;2022-08-03T03:08:29;21.20;66.30
26909;DHT22;14477;51.038;4.588;2022-08-03T03:10:57;21.20;66.30
26909;DHT22;14477;51.038;4.588;2022-08-03T03:13:23;21.10;66.40
26909;DHT22;14477;51.038;4.588;2022-08-03T03:15:51;21.10;66.40
26909;DHT22;14477;51.038;4.588;2022-08-03T03:18:17;21.10;66.80
26909;DHT22;14477;51.038;4.588;2022-08-03T03:20:44;21.00;66.50
26909;DHT22;14477;51.038;4.588;2022-08-03T03:23:11;21.00;66.60
26909;DHT22;14477;51.038;4.588;2022-08-03T03:25:37;21.00;66.70
26909;DHT22;14477;51.038;4.588;2022-08-03T03:28:03;20.90;66.70
26909;DHT22;14477;51.038;4.588;2022-08-03T03:30:29;20.90;66.80
26909;DHT22;14477;51.038;4.588;2022-08-03T03:32:56;20.80;66.80
26909;DHT22;14477;51.038;4.588;2022-08-03T03:35:23;20.80;67.00
26909;DHT22;14477;51.038;4.588;2022-08-03T03:37:49;20.80;67.00
26909;DHT22;14477;51.038;4.588;2022-08-03T03:40:14;20.80;67.20
26909;DHT22;14477;51.038;4.588;2022-08-03T03:42:40;20.80;67.20
26909;DHT22;14477;51.038;4.588;2022-08-03T03:45:07;20.70;67.20
26909;DHT22;14477;51.038;4.588;2022-08-03T03:47:36;20.70;67.40
26909;DHT22;14477;51.038;4.588;2022-08-03T03:50:03;20.60;67.80
26909;DHT22;14477;51.038;4.588;2022-08-03T03:52:31;20.60;67.70
26909;DHT22;14477;51.038;4.588;2022-08-03T03:54:56;20.60;67.70
26909;DHT22;14477;51.038;4.588;2022-08-03T03:57:22;20.60;67.60
26909;DHT22;14477;51.038;4.588;2022-08-03T03:59:48;20.50;67.60
26909;DHT22;14477;51.038;4.588;2022-08-03T04:02:14;20.50;67.70
26909;DHT22;14477;51.038;4.588;2022-08-03T04:04:40;20.50;67.90
26909;DHT22;14477;51.038;4.588;2022-08-03T04:07:26;20.50;67.90
26909;DHT22;14477;51.038;4.588;2022-08-03T04:10:16;20.40;67.90
26909;DHT22;14477;51.038;4.588;2022-08-03T04:13:03;20.40;68.10
26909;DHT22;14477;51.038;4.588;2022-08-03T04:15:32;20.40;68.00
26909;DHT22;14477;51.038;4.588;2022-08-03T04:17:58;20.30;68.00
26909;DHT22;14477;51.038;4.588;2022-08-03T04:20:29;20.30;68.00
26909;DHT22;14477;51.038;4.588;2022-08-03T04:22:57;20.30;68.20
26909;DHT22;14477;51.038;4.588;2022-08-03T04:25:28;20.20;68.10
26909;DHT22;14477;51.038;4.588;2022-08-03T04:27:55;20.20;68.30
26909;DHT22;14477;51.038;4.588;2022-08-03T04:30:26;20.10;68.10
26909;DHT22;14477;51.038;4.588;2022-08-03T04:32:54;20.10;68.40
26909;DHT22;14477;51.038;4.588;2022-08-03T04:35:25;20.10;68.40
26909;DHT22;14477;51.038;4.588;2022-08-03T04:37:54;20.10;68.60
26909;DHT22;14477;51.038;4.588;2022-08-03T04:40:32;20.10;68.70
26909;DHT22;14477;51.038;4.588;2022-08-03T04:42:59;20.10;69.20
26909;DHT22;14477;51.038;4.588;2022-08-03T04:45:27;20.10;68.70
26909;DHT22;14477;51.038;4.588;2022-08-03T04:47:53;20.10;68.90
26909;DHT22;14477;51.038;4.588;2022-08-03T04:50:20;20.10;69.00
26909;DHT22;14477;51.038;4.588;2022-08-03T04:52:46;20.10;69.20
26909;DHT22;14477;51.038;4.588;2022-08-03T04:55:27;20.10;69.20
26909;DHT22;14477;51.038;4.588;2022-08-03T04:57:54;20.10;70.40
26909;DHT22;14477;51.038;4.588;2022-08-03T05:00:20;20.10;69.20
26909;DHT22;14477;51.038;4.588;2022-08-03T05:02:45;20.10;69.40
26909;DHT22;14477;51.038;4.588;2022-08-03T05:05:11;20.10;69.50
26909;DHT22;14477;51.038;4.588;2022-08-03T05:07:37;20.10;69.50
26909;DHT22;14477;51.038;4.588;2022-08-03T05:10:05;20.10;69.60
26909;DHT22;14477;51.038;4.588;2022-08-03T05:12:31;20.10;69.90
26909;DHT22;14477;51.038;4.588;2022-08-03T05:14:57;20.10;69.90
26909;DHT22;14477;51.038;4.588;2022-08-03T05:17:22;20.10;69.90
26909;DHT22;14477;51.038;4.588;2022-08-03T05:19:48;20.10;70.00
26909;DHT22;14477;51.038;4.588;2022-08-03T05:22:14;20.20;70.20
26909;DHT22;14477;51.038;4.588;2022-08-03T05:24:40;20.20;70.30
26909;DHT22;14477;51.038;4.588;2022-08-03T05:27:05;20.20;70.40
26909;DHT22;14477;51.038;4.588;2022-08-03T05:29:31;20.20;70.50
26909;DHT22;14477;51.038;4.588;2022-08-03T05:31:56;20.30;70.60
26909;DHT22;14477;51.038;4.588;2022-08-03T05:34:22;20.30;70.80
26909;DHT22;14477;51.038;4.588;2022-08-03T05:36:48;20.40;71.00
26909;DHT22;14477;51.038;4.588;2022-08-03T05:39:14;20.40;71.00
26909;DHT22;14477;51.038;4.588;2022-08-03T05:41:40;20.40;71.30
26909;DHT22;14477;51.038;4.588;2022-08-03T05:44:05;20.50;72.00
26909;DHT22;14477;51.038;4.588;2022-08-03T05:46:31;20.50;71.30
26909;DHT22;14477;51.038;4.588;2022-08-03T05:48:57;20.60;71.40
26909;DHT22;14477;51.038;4.588;2022-08-03T05:51:22;20.60;71.60
26909;DHT22;14477;51.038;4.588;2022-08-03T05:53:48;20.70;71.70
26909;DHT22;14477;51.038;4.588;2022-08-03T05:56:14;20.80;71.90
26909;DHT22;14477;51.038;4.588;2022-08-03T05:58:39;20.80;71.90
26909;DHT22;14477;51.038;4.588;2022-08-03T06:01:05;20.90;72.10
26909;DHT22;14477;51.038;4.588;2022-08-03T06:03:31;21.00;72.20
26909;DHT22;14477;51.038;4.588;2022-08-03T06:05:56;21.10;72.30
26909;DHT22;14477;51.038;4.588;2022-08-03T06:08:22;21.20;72.30
26909;DHT22;14477;51.038;4.588;2022-08-03T06:10:49;21.20;72.30
26909;DHT22;14477;51.038;4.588;2022-08-03T06:13:15;21.30;72.50
26909;DHT22;14477;51.038;4.588;2022-08-03T06:15:41;21.40;73.10
26909;DHT22;14477;51.038;4.588;2022-08-03T06:18:07;21.50;72.50
26909;DHT22;14477;51.038;4.588;2022-08-03T06:20:33;21.60;72.70
26909;DHT22;14477;51.038;4.588;2022-08-03T06:22:59;21.70;72.70
26909;DHT22;14477;51.038;4.588;2022-08-03T06:25:25;21.70;72.70
26909;DHT22;14477;51.038;4.588;2022-08-03T06:27:51;21.80;72.70
26909;DHT22;14477;51.038;4.588;2022-08-03T06:30:17;21.90;72.80
26909;DHT22;14477;51.038;4.588;2022-08-03T06:32:43;22.00;72.80
26909;DHT22;14477;51.038;4.588;2022-08-03T06:35:09;22.10;72.90
26909;DHT22;14477;51.038;4.588;2022-08-03T06:37:45;22.20;72.70
26909;DHT22;14477;51.038;4.588;2022-08-03T06:40:13;22.30;73.20
26909;DHT22;14477;51.038;4.588;2022-08-03T06:42:39;22.40;72.70
26909;DHT22;14477;51.038;4.588;2022-08-03T06:45:06;22.50;72.70
26909;DHT22;14477;51.038;4.588;2022-08-03T06:47:37;22.60;72.70
26909;DHT22;14477;51.038;4.588;2022-08-03T06:50:06;22.70;72.70
26909;DHT22;14477;51.038;4.588;2022-08-03T06:52:34;22.80;72.90
26909;DHT22;14477;51.038;4.588;2022-08-03T06:55:04;22.90;72.80
26909;DHT22;14477;51.038;4.588;2022-08-03T06:57:30;23.00;72.80
26909;DHT22;14477;51.038;4.588;2022-08-03T06:59:56;23.20;72.70
26909;DHT22;14477;51.038;4.588;2022-08-03T07:02:27;23.20;72.70
26909;DHT22;14477;51.038;4.588;2022-08-03T07:04:53;23.30;72.70
26909;DHT22;14477;51.038;4.588;2022-08-03T07:07:18;23.50;72.60
26909;DHT22;14477;51.038;4.588;2022-08-03T07:09:45;23.60;72.60
26909;DHT22;14477;51.038;4.588;2022-08-03T07:12:12;23.70;72.60
26909;DHT22;14477;51.038;4.588;2022-08-03T07:14:38;23.80;72.40
26909;DHT22;14477;51.038;4.588;2022-08-03T07:17:03;23.90;72.30
26909;DHT22;14477;51.038;4.588;2022-08-03T07:19:29;24.10;72.20
26909;DHT22;14477;51.038;4.588;2022-08-03T07:21:55;24.20;71.90
26909;DHT22;14477;51.038;4.588;2022-08-03T07:24:21;24.40;71.70
26909;DHT22;14477;51.038;4.588;2022-08-03T07:26:46;24.50;71.50
26909;DHT22;14477;51.038;4.588;2022-08-03T07:29:12;24.60;71.20
26909;DHT22;14477;51.038;4.588;2022-08-03T07:31:38;24.80;71.10
26909;DHT22;14477;51.038;4.588;2022-08-03T07:34:04;24.90;70.80
26909;DHT22;14477;51.038;4.588;2022-08-03T07:36:30;25.00;70.50
26909;DHT22;14477;51.038;4.588;2022-08-03T07:38:56;25.20;70.40
26909;DHT22;14477;51.038;4.588;2022-08-03T07:41:22;25.30;70.20
26909;DHT22;14477;51.038;4.588;2022-08-03T07:43:48;25.40;69.80
26909;DHT22;14477;51.038;4.588;2022-08-03T07:46:14;25.50;69.70
26909;DHT22;14477;51.038;4.588;2022-08-03T07:48:39;25.60;69.50
26909;DHT22;14477;51.038;4.588;2022-08-03T07:51:05;25.80;69.30
26909;DHT22;14477;51.038;4.588;2022-08-03T07:53:31;25.90;69.00
26909;DHT22;14477;51.038;4.588;2022-08-03T07:55:57;26.00;68.90
26909;DHT22;14477;51.038;4.588;2022-08-03T07:58:22;26.10;68.90
26909;DHT22;14477;51.038;4.588;2022-08-03T08:00:49;26.30;68.70
26909;DHT22;14477;51.038;4.588;2022-08-03T08:03:18;26.50;68.60
26909;DHT22;14477;51.038;4.588;2022-08-03T08:05:44;26.70;68.60
26909;DHT22;14477;51.038;4.588;2022-08-03T08:08:10;26.80;68.40
26909;DHT22;14477;51.038;4.588;2022-08-03T08:10:36;27.00;68.50
26909;DHT22;14477;51.038;4.588;2022-08-03T08:13:03;27.30;68.60
26909;DHT22;14477;51.038;4.588;2022-08-03T08:15:29;27.50;68.50
26909;DHT22;14477;51.038;4.588;2022-08-03T08:17:57;27.80;68.90
26909;DHT22;14477;51.038;4.588;2022-08-03T08:20:25;28.10;69.50
26909;DHT22;14477;51.038;4.588;2022-08-03T08:22:53;28.50;69.80
26909;DHT22;14477;51.038;4.588;2022-08-03T08:25:19;28.90;69.70
26909;DHT22;14477;51.038;4.588;2022-08-03T08:27:47;29.30;69.50
26909;DHT22;14477;51.038;4.588;2022-08-03T08:30:15;29.80;69.20
26909;DHT22;14477;51.038;4.588;2022-08-03T08:32:41;30.40;69.30
26909;DHT22;14477;51.038;4.588;2022-08-03T08:35:08;30.90;68.60
26909;DHT22;14477;51.038;4.588;2022-08-03T08:37:34;31.40;67.50
26909;DHT22;14477;51.038;4.588;2022-08-03T08:40:00;31.90;66.20
26909;DHT22;14477;51.038;4.588;2022-08-03T08:42:26;32.40;65.50
26909;DHT22;14477;51.038;4.588;2022-08-03T08:44:52;32.80;64.70
26909;DHT22;14477;51.038;4.588;2022-08-03T08:47:24;33.40;64.50
26909;DHT22;14477;51.038;4.588;2022-08-03T08:49:54;33.80;60.60
26909;DHT22;14477;51.038;4.588;2022-08-03T08:52:24;34.20;60.70
26909;DHT22;14477;51.038;4.588;2022-08-03T08:54:53;34.60;59.10
26909;DHT22;14477;51.038;4.588;2022-08-03T08:57:22;34.80;58.10
26909;DHT22;14477;51.038;4.588;2022-08-03T08:59:50;35.10;57.20
26909;DHT22;14477;51.038;4.588;2022-08-03T09:02:16;35.30;56.80
26909;DHT22;14477;51.038;4.588;2022-08-03T09:04:42;35.70;56.60
26909;DHT22;14477;51.038;4.588;2022-08-03T09:07:10;35.90;56.10
26909;DHT22;14477;51.038;4.588;2022-08-03T09:09:35;36.20;55.50
26909;DHT22;14477;51.038;4.588;2022-08-03T09:12:01;36.60;55.00
26909;DHT22;14477;51.038;4.588;2022-08-03T09:14:28;36.80;52.90
26909;DHT22;14477;51.038;4.588;2022-08-03T09:16:59;37.10;51.90
26909;DHT22;14477;51.038;4.588;2022-08-03T09:19:29;37.30;51.90
26909;DHT22;14477;51.038;4.588;2022-08-03T09:22:16;37.50;50.00
26909;DHT22;14477;51.038;4.588;2022-08-03T09:24:57;37.70;45.40
26909;DHT22;14477;51.038;4.588;2022-08-03T09:27:23;37.90;47.20
26909;DHT22;14477;51.038;4.588;2022-08-03T09:29:53;37.90;48.40
26909;DHT22;14477;51.038;4.588;2022-08-03T09:32:23;38.10;47.00
26909;DHT22;14477;51.038;4.588;2022-08-03T09:34:50;38.10;46.30
26909;DHT22;14477;51.038;4.588;2022-08-03T09:37:18;38.20;46.00
26909;DHT22;14477;51.038;4.588;2022-08-03T09:39:45;38.30;45.70
26909;DHT22;14477;51.038;4.588;2022-08-03T09:42:17;38.40;45.60
26909;DHT22;14477;51.038;4.588;2022-08-03T09:44:45;38.40;44.80
26909;DHT22;14477;51.038;4.588;2022-08-03T09:47:13;38.60;44.70
26909;DHT22;14477;51.038;4.588;2022-08-03T09:49:41;38.70;44.50
26909;DHT22;14477;51.038;4.588;2022-08-03T09:52:14;38.80;44.30
26909;DHT22;14477;51.038;4.588;2022-08-03T09:54:41;39.00;43.20
26909;DHT22;14477;51.038;4.588;2022-08-03T09:57:08;39.00;44.40
26909;DHT22;14477;51.038;4.588;2022-08-03T09:59:44;39.20;43.50
26909;DHT22;14477;51.038;4.588;2022-08-03T10:02:23;39.30;43.50
26909;DHT22;14477;51.038;4.588;2022-08-03T10:04:50;39.50;42.10
26909;DHT22;14477;51.038;4.588;2022-08-03T10:07:20;39.50;43.00
26909;DHT22;14477;51.038;4.588;2022-08-03T10:09:57;39.80;42.70
26909;DHT22;14477;51.038;4.588;2022-08-03T10:12:23;40.00;40.80
26909;DHT22;14477;51.038;4.588;2022-08-03T10:14:49;40.30;42.30
26909;DHT22;14477;51.038;4.588;2022-08-03T10:17:17;40.50;41.10
26909;DHT22;14477;51.038;4.588;2022-08-03T10:19:43;40.60;40.70
26909;DHT22;14477;51.038;4.588;2022-08-03T10:24:38;40.70;39.50
26909;DHT22;14477;51.038;4.588;2022-08-03T10:27:06;40.80;39.60
26909;DHT22;14477;51.038;4.588;2022-08-03T10:29:42;40.90;39.60
26909;DHT22;14477;51.038;4.588;2022-08-03T10:32:17;41.00;38.00
26909;DHT22;14477;51.038;4.588;2022-08-03T10:34:44;41.10;38.10
26909;DHT22;14477;51.038;4.588;2022-08-03T10:37:11;41.30;38.80
26909;DHT22;14477;51.038;4.588;2022-08-03T10:39:39;41.40;38.50
26909;DHT22;14477;51.038;4.588;2022-08-03T10:42:25;41.50;38.30
26909;DHT22;14477;51.038;4.588;2022-08-03T10:45:00;41.50;36.70
26909;DHT22;14477;51.038;4.588;2022-08-03T10:47:28;41.60;37.00
26909;DHT22;14477;51.038;4.588;2022-08-03T10:49:54;41.60;37.50
26909;DHT22;14477;51.038;4.588;2022-08-03T10:52:20;41.70;37.30
26909;DHT22;14477;51.038;4.588;2022-08-03T10:54:46;41.90;37.20
26909;DHT22;14477;51.038;4.588;2022-08-03T10:57:48;42.00;36.50
26909;DHT22;14477;51.038;4.588;2022-08-03T11:00:25;42.10;35.40
26909;DHT22;14477;51.038;4.588;2022-08-03T11:05:29;42.30;35.30
26909;DHT22;14477;51.038;4.588;2022-08-03T11:08:24;42.40;35.90
26909;DHT22;14477;51.038;4.588;2022-08-03T11:10:54;42.50;34.40
26909;DHT22;14477;51.038;4.588;2022-08-03T11:13:22;42.60;35.20
26909;DHT22;14477;51.038;4.588;2022-08-03T11:15:52;42.70;35.00
26909;DHT22;14477;51.038;4.588;2022-08-03T11:18:18;42.90;34.40
26909;DHT22;14477;51.038;4.588;2022-08-03T11:20:48;42.90;34.40
26909;DHT22;14477;51.038;4.588;2022-08-03T11:23:15;43.00;33.60
26909;DHT22;14477;51.038;4.588;2022-08-03T11:26:10;43.10;33.70
26909;DHT22;14477;51.038;4.588;2022-08-03T11:28:37;43.10;32.60
26909;DHT22;14477;51.038;4.588;2022-08-03T11:34:08;43.40;32.40
26909;DHT22;14477;51.038;4.588;2022-08-03T11:39:46;43.60;32.90
26909;DHT22;14477;51.038;4.588;2022-08-03T11:44:47;43.70;31.10
26909;DHT22;14477;51.038;4.588;2022-08-03T11:47:13;43.60;31.40
26909;DHT22;14477;51.038;4.588;2022-08-03T11:49:50;43.60;31.50
26909;DHT22;14477;51.038;4.588;2022-08-03T11:52:16;43.50;30.90
26909;DHT22;14477;51.038;4.588;2022-08-03T11:54:42;43.40;31.30
26909;DHT22;14477;51.038;4.588;2022-08-03T11:57:09;43.30;31.40
26909;DHT22;14477;51.038;4.588;2022-08-03T11:59:36;43.30;31.60
26909;DHT22;14477;51.038;4.588;2022-08-03T12:02:12;43.40;31.60
26909;DHT22;14477;51.038;4.588;2022-08-03T12:04:54;43.50;30.00
26909;DHT22;14477;51.038;4.588;2022-08-03T12:07:23;43.50;29.90
26909;DHT22;14477;51.038;4.588;2022-08-03T12:10:11;43.40;30.60
26909;DHT22;14477;51.038;4.588;2022-08-03T12:12:38;43.30;30.10
26909;DHT22;14477;51.038;4.588;2022-08-03T12:15:04;43.30;31.10
26909;DHT22;14477;51.038;4.588;2022-08-03T12:17:35;43.40;31.10
26909;DHT22;14477;51.038;4.588;2022-08-03T12:20:01;43.60;30.60
26909;DHT22;14477;51.038;4.588;2022-08-03T12:22:34;43.70;31.30
26909;DHT22;14477;51.038;4.588;2022-08-03T12:25:03;43.90;30.80
26909;DHT22;14477;51.038;4.588;2022-08-03T12:27:29;44.00;31.50
26909;DHT22;14477;51.038;4.588;2022-08-03T12:29:56;44.20;30.00
26909;DHT22;14477;51.038;4.588;2022-08-03T12:32:22;44.20;29.80
26909;DHT22;14477;51.038;4.588;2022-08-03T12:34:49;44.20;29.90
26909;DHT22;14477;51.038;4.588;2022-08-03T12:37:22;44.20;30.00
26909;DHT22;14477;51.038;4.588;2022-08-03T12:39:52;44.20;29.80
26909;DHT22;14477;51.038;4.588;2022-08-03T12:42:18;44.30;29.70
26909;DHT22;14477;51.038;4.588;2022-08-03T12:44:44;44.40;29.90
26909;DHT22;14477;51.038;4.588;2022-08-03T12:47:15;44.50;29.70
26909;DHT22;14477;51.038;4.588;2022-08-03T12:49:45;44.50;29.60
26909;DHT22;14477;51.038;4.588;2022-08-03T12:52:11;44.60;29.30
26909;DHT22;14477;51.038;4.588;2022-08-03T12:54:37;44.60;29.80
26909;DHT22;14477;51.038;4.588;2022-08-03T12:57:04;44.60;29.30
26909;DHT22;14477;51.038;4.588;2022-08-03T13:02:01;44.70;29.20
26909;DHT22;14477;51.038;4.588;2022-08-03T13:04:33;44.60;29.00
26909;DHT22;14477;51.038;4.588;2022-08-03T13:07:05;44.60;28.70
26909;DHT22;14477;51.038;4.588;2022-08-03T13:12:25;44.70;28.70
26909;DHT22;14477;51.038;4.588;2022-08-03T13:14:55;44.70;28.40
26909;DHT22;14477;51.038;4.588;2022-08-03T13:17:21;44.70;28.80
26909;DHT22;14477;51.038;4.588;2022-08-03T13:19:47;44.80;28.90
26909;DHT22;14477;51.038;4.588;2022-08-03T13:22:14;44.80;28.70
26909;DHT22;14477;51.038;4.588;2022-08-03T13:24:41;44.90;28.70
26909;DHT22;14477;51.038;4.588;2022-08-03T13:27:07;44.90;28.60
26909;DHT22;14477;51.038;4.588;2022-08-03T13:29:33;45.00;28.80
26909;DHT22;14477;51.038;4.588;2022-08-03T13:31:59;45.10;28.60
26909;DHT22;14477;51.038;4.588;2022-08-03T13:34:25;45.10;28.50
26909;DHT22;14477;51.038;4.588;2022-08-03T13:36:52;45.10;28.20
26909;DHT22;14477;51.038;4.588;2022-08-03T13:39:18;45.10;28.00
26909;DHT22;14477;51.038;4.588;2022-08-03T13:41:47;45.00;28.00
26909;DHT22;14477;51.038;4.588;2022-08-03T13:44:13;44.90;27.90
26909;DHT22;14477;51.038;4.588;2022-08-03T13:46:39;44.90;27.90
26909;DHT22;14477;51.038;4.588;2022-08-03T13:49:05;44.80;27.80
26909;DHT22;14477;51.038;4.588;2022-08-03T13:51:32;44.80;27.90
26909;DHT22;14477;51.038;4.588;2022-08-03T13:53:58;44.80;27.90
26909;DHT22;14477;51.038;4.588;2022-08-03T13:56:27;44.80;27.70
26909;DHT22;14477;51.038;4.588;2022-08-03T13:58:54;44.70;27.50
26909;DHT22;14477;51.038;4.588;2022-08-03T14:01:20;44.60;27.60
26909;DHT22;14477;51.038;4.588;2022-08-03T14:03:46;44.50;27.60
26909;DHT22;14477;51.038;4.588;2022-08-03T14:06:14;44.40;27.70
26909;DHT22;14477;51.038;4.588;2022-08-03T14:08:40;44.20;27.50
26909;DHT22;14477;51.038;4.588;2022-08-03T14:11:06;44.00;27.50
26909;DHT22;14477;51.038;4.588;2022-08-03T14:13:32;43.90;27.40
26909;DHT22;14477;51.038;4.588;2022-08-03T14:15:58;43.80;27.70
26909;DHT22;14477;51.038;4.588;2022-08-03T14:18:23;43.70;28.00
26909;DHT22;14477;51.038;4.588;2022-08-03T14:20:49;43.70;28.00
26909;DHT22;14477;51.038;4.588;2022-08-03T14:23:15;43.80;28.00
26909;DHT22;14477;51.038;4.588;2022-08-03T14:25:41;43.80;28.00
26909;DHT22;14477;51.038;4.588;2022-08-03T14:28:07;43.80;28.00
26909;DHT22;14477;51.038;4.588;2022-08-03T14:30:34;43.70;27.80
26909;DHT22;14477;51.038;4.588;2022-08-03T14:33:00;43.70;27.80
26909;DHT22;14477;51.038;4.588;2022-08-03T14:35:26;43.60;27.80
26909;DHT22;14477;51.038;4.588;2022-08-03T14:37:52;43.60;28.00
26909;DHT22;14477;51.038;4.588;2022-08-03T14:40:18;43.60;27.80
26909;DHT22;14477;51.038;4.588;2022-08-03T14:42:45;43.60;27.90
26909;DHT22;14477;51.038;4.588;2022-08-03T14:45:11;43.50;27.90
26909;DHT22;14477;51.038;4.588;2022-08-03T14:47:38;43.40;27.60
26909;DHT22;14477;51.038;4.588;2022-08-03T14:50:05;43.30;27.60
26909;DHT22;14477;51.038;4.588;2022-08-03T14:52:32;43.10;27.50
26909;DHT22;14477;51.038;4.588;2022-08-03T14:54:58;43.00;27.60
26909;DHT22;14477;51.038;4.588;2022-08-03T14:57:25;43.00;27.70
26909;DHT22;14477;51.038;4.588;2022-08-03T14:59:51;42.80;27.70
26909;DHT22;14477;51.038;4.588;2022-08-03T15:02:17;42.60;27.50
26909;DHT22;14477;51.038;4.588;2022-08-03T15:04:43;42.50;27.60
26909;DHT22;14477;51.038;4.588;2022-08-03T15:07:08;42.30;27.70
26909;DHT22;14477;51.038;4.588;2022-08-03T15:09:34;42.30;27.80
26909;DHT22;14477;51.038;4.588;2022-08-03T15:12:00;42.10;27.80
26909;DHT22;14477;51.038;4.588;2022-08-03T15:14:25;42.00;27.90
26909;DHT22;14477;51.038;4.588;2022-08-03T15:16:51;41.80;27.80
26909;DHT22;14477;51.038;4.588;2022-08-03T15:19:17;41.70;27.70
26909;DHT22;14477;51.038;4.588;2022-08-03T15:21:43;41.50;27.80
26909;DHT22;14477;51.038;4.588;2022-08-03T15:24:09;41.30;27.90
26909;DHT22;14477;51.038;4.588;2022-08-03T15:26:34;41.20;28.00
26909;DHT22;14477;51.038;4.588;2022-08-03T15:29:00;41.10;28.10
26909;DHT22;14477;51.038;4.588;2022-08-03T15:31:27;40.90;28.00
26909;DHT22;14477;51.038;4.588;2022-08-03T15:33:52;40.70;28.00
26909;DHT22;14477;51.038;4.588;2022-08-03T15:36:19;40.60;28.00
26909;DHT22;14477;51.038;4.588;2022-08-03T15:38:45;40.40;28.20
26909;DHT22;14477;51.038;4.588;2022-08-03T15:41:12;40.20;28.30
26909;DHT22;14477;51.038;4.588;2022-08-03T15:43:39;40.00;28.30
26909;DHT22;14477;51.038;4.588;2022-08-03T15:46:05;39.80;28.40
26909;DHT22;14477;51.038;4.588;2022-08-03T15:48:30;39.70;28.60
26909;DHT22;14477;51.038;4.588;2022-08-03T15:50:56;39.50;28.80
26909;DHT22;14477;51.038;4.588;2022-08-03T15:53:22;39.50;29.00
26909;DHT22;14477;51.038;4.588;2022-08-03T15:55:48;39.40;29.20
26909;DHT22;14477;51.038;4.588;2022-08-03T15:58:13;39.40;29.10
26909;DHT22;14477;51.038;4.588;2022-08-03T16:00:40;39.30;29.20
26909;DHT22;14477;51.038;4.588;2022-08-03T16:03:06;39.30;29.30
26909;DHT22;14477;51.038;4.588;2022-08-03T16:05:32;39.20;29.40